< Typhoon 198806 1988 Season Typhoon 198808 >
Typhoon 198807 (AGNES)
General InformationTrack Information on Google MapsDetailed Wind InformationList of All Images || Disaster Info.ResourceGoogle EarthGE AnimationAtom FeedGeoJSON
Detalied Best Track (Time Zone = UTC)
Year Month Day Hour Lat. Long. Pressure (hPa) Wind (kt) Class Image Chart
1988 7 27 12 21.6 137.4 996 0 2 Image Chart
1988 7 27 18 21.1 137.6 996 0 2 Image Chart
1988 7 28 00 20.6 138.1 996 0 2 Image Chart
1988 7 28 06 20.4 139.1 996 0 2 Image Chart
1988 7 28 12 20.5 140.0 996 0 2 Image Chart
1988 7 28 18 21.3 140.8 994 0 2 Image Chart
1988 7 29 00 22.0 141.0 994 0 2 Image Chart
1988 7 29 06 22.4 141.0 992 35 3 Image Chart
1988 7 29 12 23.0 141.1 990 40 3 Image Chart
1988 7 29 18 24.1 141.2 985 40 3 Image Chart
1988 7 30 00 25.7 141.2 980 50 4 Image Chart
1988 7 30 06 27.6 141.2 975 50 4 Image Chart
1988 7 30 12 29.3 141.2 980 50 4 Image Chart
1988 7 30 18 31.2 141.5 980 45 3 Image Chart
1988 7 31 00 32.8 142.5 980 45 3 Image Chart
1988 7 31 06 35.0 145.3 985 45 3 Image Chart
1988 7 31 12 37.4 148.3 985 45 3 Image Chart
1988 7 31 18 39.9 151.5 990 45 3 Image Chart
1988 8 1 00 42.1 156.0 992 40 3 Image Chart
1988 8 1 06 44.0 160.0 992 0 6 Image Chart
1988 8 1 12 47.0 164.0 988 0 6 Image Chart
1988 8 1 18 51.0 165.0 976 0 6 Image Chart
1988 8 2 00 52.0 165.5 976 0 6 Image Chart
1988 8 2 06 52.5 166.0 976 0 6 Image Chart
1988 8 2 12 52.5 166.5 980 0 6 Image Chart
1988 8 2 18 53.0 168.0 984 0 6 Image Chart
1988 8 3 00 53.0 169.0 988 0 6 Image Chart
1988 8 3 06 53.0 171.0 988 0 6 Image Chart
1988 8 3 12 54.0 173.0 992 0 6 Image Chart
1988 8 3 18 55.0 175.0 996 0 6 Image Chart
1988 8 4 00 55.5 177.5 996 0 6 Image Chart
1988 8 4 06 56.0 179.0 996 0 6 Image Chart
Japan Meteorological Agency Best Track Data | Correction Date : 1992-10-21
< Typhoon 198806 1988 Season Typhoon 198808 >

Help